KMOP/MOP METAR and TAF weather

Enter ICAO airport designator
Station Type Date Time Source
KMOP METAR 2024/04/15 08:03 UTC NOAA

KMOP 150803Z AUTO 00000KT 10SM CLR 06/02 A2987 RMK AO2


Station Type Date Time Source
KMOP Decoded METAR 2024/04/15 08:03 UTC NOAA

Mount Pleasant, Mount Pleasant Municipal Airport, MI, United States (KMOP) 43-37N 84-44W
Apr 15, 2024 - 04:03 AM EDT / 2024.04.15 0803 UTC
Wind: Calm:0
Visibility: 10 mile(s):0
Sky conditions: clear
Temperature: 42 F (6 C)
Dew Point: 35 F (2 C)
Relative Humidity: 75%
Pressure (altimeter): 29.87 in. Hg (1011 hPa)
ob: KMOP 150803Z AUTO 00000KT 10SM CLR 06/02 A2987 RMK AO2
cycle: 8

Station Type Date Time Source
KMOP TAF UTC NOAA

Error!

Example: see airport list